createdAt,value
2022-10-02T00:01:04.772Z,18.69
2022-10-02T00:02:36.480Z,18.69
2022-10-02T00:04:09.023Z,18.68
2022-10-02T00:05:42.708Z,18.69
2022-10-02T00:07:14.497Z,18.72
2022-10-02T00:08:46.116Z,18.68
2022-10-02T00:10:20.329Z,18.69
2022-10-02T00:11:54.891Z,18.68
2022-10-02T00:13:37.573Z,18.71
2022-10-02T00:15:17.070Z,18.69
2022-10-02T00:16:49.894Z,18.71
2022-10-02T00:18:25.082Z,18.72
2022-10-02T00:19:56.974Z,18.70
2022-10-02T00:21:37.890Z,18.72
2022-10-02T00:23:18.040Z,18.75
2022-10-02T00:24:52.224Z,18.77
2022-10-02T00:26:25.075Z,18.78
2022-10-02T00:27:56.762Z,18.76
2022-10-02T00:29:28.698Z,18.74
2022-10-02T00:31:06.533Z,18.72
2022-10-02T00:32:41.182Z,18.64
2022-10-02T00:34:15.370Z,18.61
2022-10-02T00:36:13.558Z,18.60
2022-10-02T00:37:52.577Z,18.51
2022-10-02T00:39:27.035Z,18.49
2022-10-02T00:41:05.110Z,18.48
2022-10-02T00:42:36.841Z,18.41
2022-10-02T00:44:08.591Z,18.38
2022-10-02T00:45:46.509Z,18.35
2022-10-02T00:47:18.113Z,18.31
2022-10-02T00:48:52.774Z,18.24
2022-10-02T00:50:27.847Z,18.18
2022-10-02T00:52:37.493Z,18.10
2022-10-02T00:54:15.091Z,18.07
2022-10-02T00:56:05.285Z,18.06
2022-10-02T00:57:47.814Z,18.09
2022-10-02T00:59:39.603Z,18.10
2022-10-02T01:01:16.897Z,18.07
2022-10-02T01:02:58.615Z,18.09
2022-10-02T01:04:36.938Z,18.09
2022-10-02T01:06:08.682Z,18.08
2022-10-02T01:07:42.341Z,18.09
2022-10-02T01:09:13.972Z,18.08
2022-10-02T01:10:45.491Z,18.06
2022-10-02T01:12:17.123Z,18.05
2022-10-02T01:13:48.817Z,18.05
2022-10-02T01:15:21.521Z,18.04
2022-10-02T01:16:53.265Z,18.07
2022-10-02T01:18:24.802Z,18.07
2022-10-02T01:19:56.361Z,18.04
2022-10-02T01:21:31.609Z,18.02
2022-10-02T01:23:12.837Z,17.99
2022-10-02T01:24:53.662Z,17.98
2022-10-02T01:26:25.299Z,17.97
2022-10-02T01:27:57.297Z,17.94
2022-10-02T01:29:28.886Z,17.93
2022-10-02T01:31:10.718Z,17.93
2022-10-02T01:32:43.374Z,17.91
2022-10-02T01:34:15.055Z,17.91
2022-10-02T01:35:46.585Z,17.87
2022-10-02T01:37:18.257Z,17.86
2022-10-02T01:38:50.114Z,17.84
2022-10-02T01:40:28.835Z,17.83
2022-10-02T01:42:00.368Z,17.86
2022-10-02T01:43:32.518Z,17.88
2022-10-02T01:45:04.848Z,17.88
2022-10-02T01:46:36.741Z,17.84
2022-10-02T01:48:12.402Z,17.84
2022-10-02T01:49:46.753Z,17.81
2022-10-02T01:51:37.195Z,17.79
2022-10-02T01:53:14.557Z,17.79
2022-10-02T01:54:49.242Z,17.74
2022-10-02T01:56:27.469Z,17.73
2022-10-02T01:58:17.914Z,17.72
2022-10-02T01:59:59.552Z,17.71
2022-10-02T02:01:35.464Z,17.68
2022-10-02T02:03:12.885Z,17.68
2022-10-02T02:04:50.804Z,17.66
2022-10-02T02:06:27.234Z,17.64
2022-10-02T02:08:02.420Z,17.64
2022-10-02T02:09:36.961Z,17.63
2022-10-02T02:11:12.251Z,17.60
2022-10-02T02:12:44.230Z,17.55
2022-10-02T02:14:17.025Z,17.53
2022-10-02T02:16:01.408Z,17.51
2022-10-02T02:17:33.071Z,17.48
2022-10-02T02:19:04.556Z,17.44
2022-10-02T02:20:37.148Z,17.39
2022-10-02T02:22:10.885Z,17.33
2022-10-02T02:23:42.693Z,17.27
2022-10-02T02:25:15.804Z,17.23
2022-10-02T02:26:47.612Z,17.21
2022-10-02T02:28:19.525Z,17.19
2022-10-02T02:29:51.669Z,17.16
2022-10-02T02:31:25.031Z,17.15
2022-10-02T02:32:57.912Z,17.11
2022-10-02T02:34:34.026Z,17.11
2022-10-02T02:36:07.901Z,17.10
2022-10-02T02:37:39.938Z,17.10
2022-10-02T02:39:14.230Z,17.12
2022-10-02T02:40:45.784Z,17.10
2022-10-02T02:42:18.188Z,17.12
2022-10-02T02:43:59.263Z,17.10
2022-10-02T02:45:32.490Z,17.06
2022-10-02T02:47:04.093Z,17.02
2022-10-02T02:48:46.234Z,16.98
2022-10-02T02:50:20.658Z,16.98
2022-10-02T02:51:52.629Z,16.98
2022-10-02T02:53:25.420Z,16.98
2022-10-02T02:55:17.174Z,16.98
2022-10-02T02:56:49.140Z,16.98
2022-10-02T02:58:31.736Z,16.99
2022-10-02T03:00:04.317Z,17.00
2022-10-02T03:01:36.075Z,16.98
2022-10-02T03:03:08.189Z,16.97
2022-10-02T03:04:39.755Z,16.93
2022-10-02T03:06:19.028Z,16.91
2022-10-02T03:07:54.559Z,16.90
2022-10-02T03:09:26.175Z,16.89
2022-10-02T03:11:00.644Z,16.85
2022-10-02T03:12:35.966Z,16.82
2022-10-02T03:14:13.803Z,16.80
2022-10-02T03:15:53.323Z,16.78
2022-10-02T03:17:31.227Z,16.74
2022-10-02T03:19:10.767Z,16.72
2022-10-02T03:20:53.295Z,16.69
2022-10-02T03:22:29.547Z,16.67
2022-10-02T03:24:09.690Z,16.64
2022-10-02T03:25:44.004Z,16.60
2022-10-02T03:27:18.792Z,16.55
2022-10-02T03:28:56.773Z,16.51
2022-10-02T03:30:28.705Z,16.48
2022-10-02T03:32:00.531Z,16.45
2022-10-02T03:33:32.270Z,16.45
2022-10-02T03:35:04.456Z,16.43
2022-10-02T03:36:36.204Z,16.42
2022-10-02T03:38:08.733Z,16.40
2022-10-02T03:39:41.146Z,16.37
2022-10-02T03:41:13.490Z,16.35
2022-10-02T03:42:45.100Z,16.31
2022-10-02T03:44:16.837Z,16.23
2022-10-02T03:45:51.491Z,16.18
2022-10-02T03:47:23.586Z,16.17
2022-10-02T03:48:56.810Z,16.20
2022-10-02T03:50:31.729Z,16.23
2022-10-02T03:52:05.712Z,16.25
2022-10-02T03:53:37.385Z,16.29
2022-10-02T03:55:12.016Z,16.30
2022-10-02T03:56:43.733Z,16.27
2022-10-02T03:58:16.288Z,16.25
2022-10-02T04:00:00.234Z,16.18
2022-10-02T04:01:35.850Z,16.16
2022-10-02T04:03:11.529Z,16.12
2022-10-02T04:04:47.437Z,16.08
2022-10-02T04:06:37.852Z,16.05
2022-10-02T04:08:10.977Z,16.03
2022-10-02T04:09:44.077Z,16.01
2022-10-02T04:11:35.650Z,16.01
2022-10-02T04:13:11.218Z,16.05
2022-10-02T04:14:42.811Z,16.12
2022-10-02T04:16:24.503Z,16.15
2022-10-02T04:17:59.528Z,16.20
2022-10-02T04:19:36.672Z,16.22
2022-10-02T04:21:20.558Z,16.23
2022-10-02T04:23:01.688Z,16.21
2022-10-02T04:24:48.667Z,16.19
2022-10-02T04:26:22.512Z,16.19
2022-10-02T04:28:06.023Z,16.18
2022-10-02T04:29:38.979Z,16.18
2022-10-02T04:31:11.789Z,16.20
2022-10-02T04:32:43.973Z,16.23
2022-10-02T04:34:15.577Z,16.25
2022-10-02T04:36:05.518Z,16.25
2022-10-02T04:37:57.506Z,16.24
2022-10-02T04:39:46.594Z,16.26
2022-10-02T04:41:27.619Z,16.25
2022-10-02T04:43:15.951Z,16.25
2022-10-02T04:44:50.243Z,16.25
2022-10-02T04:46:23.115Z,16.28
2022-10-02T04:48:06.815Z,16.26
2022-10-02T04:50:01.425Z,16.25
2022-10-02T04:51:45.032Z,16.26
2022-10-02T04:53:19.044Z,16.27
2022-10-02T04:55:09.052Z,16.29
2022-10-02T04:56:56.697Z,16.31
2022-10-02T04:58:47.116Z,16.29
2022-10-02T05:00:19.581Z,16.28
2022-10-02T05:01:57.027Z,16.33
2022-10-02T05:03:28.752Z,16.34
2022-10-02T05:05:22.033Z,16.36
2022-10-02T05:06:58.568Z,16.36
2022-10-02T05:08:33.032Z,16.35
2022-10-02T05:10:04.620Z,16.35
2022-10-02T05:11:42.938Z,16.34
2022-10-02T05:13:32.564Z,16.36
2022-10-02T05:15:23.359Z,16.41
2022-10-02T05:16:55.754Z,16.44
2022-10-02T05:18:39.628Z,16.47
2022-10-02T05:20:29.026Z,16.52
2022-10-02T05:22:19.129Z,16.57
2022-10-02T05:23:56.149Z,16.63
2022-10-02T05:25:42.702Z,16.71
2022-10-02T05:27:23.481Z,16.78
2022-10-02T05:28:55.548Z,16.83
2022-10-02T05:30:27.289Z,16.88
2022-10-02T05:32:06.420Z,16.96
2022-10-02T05:33:47.427Z,17.11
2022-10-02T05:35:26.652Z,17.26
2022-10-02T05:37:02.737Z,17.43
2022-10-02T05:38:37.489Z,17.60
2022-10-02T05:40:15.251Z,17.81
2022-10-02T05:42:05.305Z,17.94
2022-10-02T05:43:40.258Z,18.10
2022-10-02T05:45:15.936Z,18.26
2022-10-02T05:47:10.965Z,18.34
2022-10-02T05:48:46.854Z,18.42
2022-10-02T05:50:19.129Z,18.49
2022-10-02T05:52:01.278Z,18.52
2022-10-02T05:53:37.719Z,18.57
2022-10-02T05:55:15.661Z,18.60
2022-10-02T05:56:49.001Z,18.63
2022-10-02T05:58:42.059Z,18.64
2022-10-02T06:00:13.926Z,18.55
2022-10-02T06:01:46.818Z,18.35
2022-10-02T06:03:40.036Z,18.22
2022-10-02T06:05:19.036Z,18.11
2022-10-02T06:06:54.440Z,18.03
2022-10-02T06:08:37.396Z,17.93
2022-10-02T06:10:13.481Z,17.89
2022-10-02T06:11:50.497Z,17.85
2022-10-02T06:13:24.334Z,17.82
2022-10-02T06:15:02.472Z,17.83
2022-10-02T06:16:40.240Z,17.85
2022-10-02T06:18:17.328Z,17.83
2022-10-02T06:20:07.702Z,17.84
2022-10-02T06:21:45.283Z,17.76
2022-10-02T06:23:20.944Z,17.78
2022-10-02T06:24:58.116Z,17.90
2022-10-02T06:26:38.033Z,18.03
2022-10-02T06:28:24.198Z,18.13
2022-10-02T06:29:59.524Z,18.24
2022-10-02T06:31:36.579Z,18.25
2022-10-02T06:33:14.333Z,18.30
2022-10-02T06:34:48.150Z,18.27
2022-10-02T06:36:25.872Z,18.22
2022-10-02T06:37:59.057Z,18.20
2022-10-02T06:39:36.951Z,18.19
2022-10-02T06:41:20.836Z,18.18
2022-10-02T06:42:53.016Z,18.18
2022-10-02T06:44:31.201Z,18.19
2022-10-02T06:46:08.533Z,18.14
2022-10-02T06:47:40.783Z,17.97
2022-10-02T06:49:41.639Z,17.89
2022-10-02T06:51:32.459Z,17.81
2022-10-02T06:53:07.606Z,17.77
2022-10-02T06:54:46.995Z,17.74
2022-10-02T06:56:18.635Z,17.71
2022-10-02T06:57:51.528Z,17.68
2022-10-02T06:59:42.056Z,17.68
2022-10-02T07:01:15.924Z,17.60
2022-10-02T07:03:06.967Z,17.56
2022-10-02T07:12:37.511Z,17.64
2022-10-02T07:14:28.202Z,17.70
2022-10-02T07:16:01.119Z,17.86
2022-10-02T07:17:53.030Z,18.05
2022-10-02T07:19:33.526Z,18.27
2022-10-02T07:21:08.413Z,18.48
2022-10-02T07:22:59.653Z,18.66
2022-10-02T07:24:43.901Z,18.81
2022-10-02T07:26:24.888Z,19.00
2022-10-02T07:28:00.170Z,19.18
2022-10-02T07:29:54.466Z,19.34
2022-10-02T07:31:26.205Z,19.32
2022-10-02T07:33:02.490Z,19.25
2022-10-02T07:34:56.371Z,19.18
2022-10-02T07:36:35.029Z,19.26
2022-10-02T07:38:43.392Z,19.26
2022-10-02T07:40:35.230Z,19.32
2022-10-02T07:42:13.009Z,19.43
2022-10-02T07:43:50.904Z,19.56
2022-10-02T07:45:31.918Z,19.74
2022-10-02T07:47:06.559Z,19.98
2022-10-02T07:48:44.549Z,20.18
2022-10-02T07:50:24.731Z,20.41
2022-10-02T07:52:05.158Z,20.63
2022-10-02T07:53:40.595Z,20.82
2022-10-02T07:55:16.735Z,20.92
2022-10-02T07:56:49.686Z,20.94
2022-10-02T07:58:27.473Z,20.97
2022-10-02T08:00:04.817Z,20.92
2022-10-02T08:01:37.307Z,20.92
2022-10-02T08:03:19.145Z,20.87
2022-10-02T08:04:50.970Z,20.83
2022-10-02T08:06:22.632Z,20.88
2022-10-02T08:07:58.092Z,20.98
2022-10-02T08:09:34.253Z,21.12
2022-10-02T08:11:10.135Z,21.20
2022-10-02T08:12:44.601Z,21.35
2022-10-02T08:14:16.276Z,21.50
2022-10-02T08:15:53.002Z,21.61
2022-10-02T08:17:48.626Z,21.78
2022-10-02T08:19:21.318Z,22.01
2022-10-02T08:20:53.494Z,22.27
2022-10-02T08:22:28.872Z,22.43
2022-10-02T08:24:01.925Z,22.49
2022-10-02T08:25:43.169Z,22.56
2022-10-02T08:27:18.957Z,22.67
2022-10-02T08:29:02.267Z,22.70
2022-10-02T08:30:33.824Z,22.70
2022-10-02T08:32:08.171Z,22.74
2022-10-02T08:33:39.921Z,22.74
2022-10-02T08:35:12.321Z,22.81
2022-10-02T08:36:59.605Z,22.92
2022-10-02T08:38:49.396Z,22.94
2022-10-02T08:40:34.807Z,22.98
2022-10-02T08:42:26.377Z,22.96
2022-10-02T08:44:16.577Z,22.91
2022-10-02T08:46:02.195Z,22.84
2022-10-02T08:48:00.011Z,22.74
2022-10-02T08:49:43.591Z,22.61
2022-10-02T08:51:21.568Z,22.33
2022-10-02T08:53:00.290Z,22.19
2022-10-02T08:54:31.818Z,22.29
2022-10-02T08:56:22.321Z,22.39
2022-10-02T08:58:03.674Z,22.46
2022-10-02T08:59:58.336Z,22.47
2022-10-02T09:01:39.299Z,22.37
2022-10-02T09:03:20.228Z,22.45
2022-10-02T09:05:01.145Z,22.59
2022-10-02T09:06:32.730Z,22.71
2022-10-02T09:08:26.483Z,22.81
2022-10-02T09:10:20.933Z,22.93
2022-10-02T09:12:11.389Z,23.07
2022-10-02T09:13:50.400Z,23.23
2022-10-02T09:15:23.380Z,23.24
2022-10-02T09:16:58.017Z,23.23
2022-10-02T09:18:48.902Z,23.17
2022-10-02T09:20:36.208Z,23.25
2022-10-02T09:22:07.847Z,23.33
2022-10-02T09:23:55.433Z,23.37
2022-10-02T09:25:29.676Z,23.28
2022-10-02T09:27:20.297Z,23.15
2022-10-02T09:29:02.960Z,23.14
2022-10-02T09:30:34.564Z,23.14
2022-10-02T09:32:16.164Z,23.12
2022-10-02T09:33:55.022Z,23.06
2022-10-02T09:35:42.073Z,23.15
2022-10-02T09:37:31.845Z,23.34
2022-10-02T09:39:25.191Z,23.29
2022-10-02T09:41:15.554Z,23.29
2022-10-02T09:43:05.772Z,23.13
2022-10-02T09:44:37.988Z,23.14
2022-10-02T09:46:12.880Z,23.09
2022-10-02T09:47:44.908Z,22.99
2022-10-02T09:49:36.893Z,22.84
2022-10-02T09:51:08.605Z,22.70
2022-10-02T09:52:48.633Z,22.67
2022-10-02T09:54:41.579Z,22.62
2022-10-02T09:56:19.354Z,22.66
2022-10-02T09:57:57.659Z,22.73
2022-10-02T09:59:36.680Z,22.88
2022-10-02T10:01:18.365Z,23.01
2022-10-02T10:02:51.214Z,23.29
2022-10-02T10:04:42.187Z,23.52
2022-10-02T10:06:49.891Z,23.85
2022-10-02T10:08:40.483Z,23.86
2022-10-02T10:10:14.889Z,23.83
2022-10-02T10:11:51.586Z,23.73
2022-10-02T10:13:26.630Z,23.59
2022-10-02T10:15:20.387Z,23.50
2022-10-02T10:16:55.227Z,23.38
2022-10-02T10:18:32.847Z,23.44
2022-10-02T10:20:07.295Z,23.74
2022-10-02T10:21:57.542Z,23.90
2022-10-02T10:23:38.420Z,23.72
2022-10-02T10:25:18.374Z,23.66
2022-10-02T10:26:56.564Z,23.65
2022-10-02T10:28:34.444Z,23.69
2022-10-02T10:30:09.070Z,23.84
2022-10-02T10:31:41.555Z,24.02
2022-10-02T10:33:13.355Z,24.24
2022-10-02T10:34:54.294Z,24.31
2022-10-02T10:36:46.731Z,24.05
2022-10-02T10:38:37.500Z,23.83
2022-10-02T10:40:22.370Z,23.76
2022-10-02T10:41:53.922Z,23.68
2022-10-02T10:43:42.354Z,23.77
2022-10-02T10:45:20.410Z,23.87
2022-10-02T10:47:15.528Z,23.78
2022-10-02T10:48:56.424Z,23.70
2022-10-02T10:50:43.008Z,23.64
2022-10-02T10:52:16.366Z,23.72
2022-10-02T10:53:57.179Z,23.72
2022-10-02T10:55:43.819Z,23.78
2022-10-02T10:57:15.441Z,23.78
2022-10-02T10:58:48.885Z,23.71
2022-10-02T11:00:46.888Z,23.57
2022-10-02T11:02:19.107Z,23.47
2022-10-02T11:03:58.760Z,23.33
2022-10-02T11:05:40.759Z,23.27
2022-10-02T11:07:14.146Z,23.13
2022-10-02T11:08:45.874Z,23.05
2022-10-02T11:10:43.872Z,22.92
2022-10-02T11:12:28.878Z,22.89
2022-10-02T11:14:09.625Z,22.94
2022-10-02T11:15:45.084Z,22.98
2022-10-02T11:17:32.046Z,22.90
2022-10-02T11:19:11.178Z,22.85
2022-10-02T11:20:55.774Z,22.73
2022-10-02T11:22:45.960Z,22.69
2022-10-02T11:24:21.003Z,22.85
2022-10-02T11:26:07.204Z,22.96
2022-10-02T11:27:59.533Z,22.94
2022-10-02T11:29:39.179Z,22.84
2022-10-02T11:31:30.066Z,22.71
2022-10-02T11:33:02.551Z,22.57
2022-10-02T11:34:46.942Z,22.39
2022-10-02T11:36:25.349Z,22.43
2022-10-02T11:38:04.261Z,22.50
2022-10-02T11:39:51.137Z,22.51
2022-10-02T11:41:25.707Z,22.42
2022-10-02T11:43:16.476Z,22.48
2022-10-02T11:44:48.798Z,22.63
2022-10-02T11:46:38.813Z,22.69
2022-10-02T11:48:28.836Z,22.71
2022-10-02T11:50:04.250Z,22.85
2022-10-02T11:51:46.593Z,22.93
2022-10-02T11:53:27.573Z,23.02
2022-10-02T11:55:19.767Z,23.19
2022-10-02T11:57:03.881Z,23.45
2022-10-02T11:58:45.436Z,23.56
2022-10-02T12:00:36.337Z,23.70
2022-10-02T12:02:08.715Z,23.80
2022-10-02T12:03:40.454Z,23.90
2022-10-02T12:05:28.292Z,24.10
2022-10-02T12:07:18.677Z,24.31
2022-10-02T12:09:09.062Z,24.54
2022-10-02T12:10:44.394Z,24.68
2022-10-02T12:12:38.694Z,24.77
2022-10-02T12:14:13.552Z,24.96
2022-10-02T12:16:00.142Z,25.15
2022-10-02T12:17:35.174Z,25.29
2022-10-02T12:19:15.948Z,25.42
2022-10-02T12:21:12.582Z,25.47
2022-10-02T12:23:05.646Z,25.46
2022-10-02T12:25:14.861Z,25.52
2022-10-02T12:27:02.819Z,25.43
2022-10-02T12:28:56.770Z,25.25
2022-10-02T12:30:31.521Z,25.03
2022-10-02T12:32:24.940Z,24.96
2022-10-02T12:34:04.325Z,24.77
2022-10-02T12:35:48.188Z,24.65
2022-10-02T12:37:22.871Z,24.61
2022-10-02T12:39:18.791Z,24.59
2022-10-02T12:41:08.880Z,24.60
2022-10-02T12:42:57.809Z,24.54
2022-10-02T12:44:29.557Z,24.38
2022-10-02T12:46:14.403Z,24.20
2022-10-02T12:47:52.188Z,24.07
2022-10-02T12:49:30.081Z,24.14
2022-10-02T12:51:22.273Z,24.23
2022-10-02T12:53:00.600Z,24.42
2022-10-02T12:54:58.786Z,24.58
2022-10-02T12:56:49.809Z,24.70
2022-10-02T12:58:24.725Z,24.70
2022-10-02T13:00:00.084Z,24.60
2022-10-02T13:01:50.229Z,24.56
2022-10-02T13:03:37.321Z,24.54
2022-10-02T13:05:09.550Z,24.54
2022-10-02T13:06:46.872Z,24.43
2022-10-02T13:08:40.866Z,24.29
2022-10-02T13:10:22.049Z,23.91
2022-10-02T13:11:56.028Z,23.70
2022-10-02T13:13:40.006Z,23.56
2022-10-02T13:15:19.855Z,23.55
2022-10-02T13:16:58.130Z,23.44
2022-10-02T13:18:33.901Z,23.38
2022-10-02T13:20:26.737Z,23.41
2022-10-02T13:21:59.197Z,23.56
2022-10-02T13:23:46.140Z,23.53
2022-10-02T13:25:19.102Z,23.58
2022-10-02T13:26:51.685Z,23.63
2022-10-02T13:28:29.572Z,23.70
2022-10-02T13:30:19.787Z,23.85
2022-10-02T13:32:05.201Z,23.99
2022-10-02T13:33:45.605Z,24.13
2022-10-02T13:35:20.459Z,24.27
2022-10-02T13:37:10.965Z,24.31
2022-10-02T13:39:01.526Z,24.30
2022-10-02T13:40:42.287Z,24.31
2022-10-02T13:42:18.464Z,24.21
2022-10-02T13:44:08.058Z,24.21
2022-10-02T13:45:55.555Z,24.21
2022-10-02T13:47:27.569Z,24.17
2022-10-02T13:49:01.962Z,24.19
2022-10-02T13:50:38.176Z,24.16
2022-10-02T13:52:28.649Z,24.23
2022-10-02T13:54:03.955Z,24.37
2022-10-02T13:55:39.511Z,24.38
2022-10-02T13:57:30.515Z,24.44
2022-10-02T13:59:02.409Z,24.42
2022-10-02T14:00:40.644Z,24.45
2022-10-02T14:03:54.800Z,24.37
2022-10-02T14:05:26.574Z,24.32
2022-10-02T14:07:18.953Z,24.26
2022-10-02T14:09:09.317Z,24.19
2022-10-02T14:10:47.152Z,24.08
2022-10-02T14:12:29.475Z,23.95
2022-10-02T14:14:03.594Z,23.83
2022-10-02T14:15:42.062Z,23.74
2022-10-02T14:17:16.953Z,23.64
2022-10-02T14:19:03.462Z,23.55
2022-10-02T14:20:46.949Z,23.52
2022-10-02T14:22:37.917Z,23.35
2022-10-02T14:24:20.247Z,23.21
2022-10-02T14:26:11.459Z,23.11
2022-10-02T14:28:09.756Z,23.02
2022-10-02T14:29:46.134Z,23.05
2022-10-02T14:31:37.163Z,23.00
2022-10-02T14:33:17.330Z,22.97
2022-10-02T14:35:00.920Z,22.95
2022-10-02T14:36:36.403Z,22.94
2022-10-02T14:38:14.092Z,22.92
2022-10-02T14:39:46.148Z,22.83
2022-10-02T14:41:30.309Z,22.77
2022-10-02T14:43:07.746Z,22.73
2022-10-02T14:44:42.329Z,22.71
2022-10-02T14:46:33.600Z,22.66
2022-10-02T14:48:11.446Z,22.58
2022-10-02T14:50:01.377Z,22.53
2022-10-02T14:51:52.026Z,22.52
2022-10-02T14:53:30.203Z,22.46
2022-10-02T14:55:04.968Z,22.39
2022-10-02T14:56:57.969Z,22.36
2022-10-02T14:58:48.513Z,22.31
2022-10-02T15:00:21.435Z,22.30
2022-10-02T15:02:14.635Z,22.20
2022-10-02T15:04:01.225Z,21.99
2022-10-02T15:05:35.457Z,21.78
2022-10-02T15:07:08.193Z,21.56
2022-10-02T15:08:50.568Z,21.42
2022-10-02T15:10:22.608Z,21.20
2022-10-02T15:12:02.695Z,21.10
2022-10-02T15:13:34.536Z,21.00
2022-10-02T15:15:10.953Z,20.97
2022-10-02T15:17:08.106Z,20.94
2022-10-02T15:18:40.107Z,20.91
2022-10-02T15:20:26.209Z,20.87
2022-10-02T15:21:58.513Z,20.80
2022-10-02T15:23:32.805Z,20.78
2022-10-02T15:25:27.676Z,20.78
2022-10-02T15:27:11.812Z,20.79
2022-10-02T15:28:49.151Z,20.80
2022-10-02T15:30:20.864Z,20.80
2022-10-02T15:32:06.971Z,20.80
2022-10-02T15:33:43.103Z,20.80
2022-10-02T15:35:20.747Z,20.79
2022-10-02T15:36:59.183Z,20.78
2022-10-02T15:38:44.372Z,20.73
2022-10-02T15:40:21.984Z,20.66
2022-10-02T15:41:59.677Z,20.65
2022-10-02T15:43:47.872Z,20.65
2022-10-02T15:45:25.895Z,20.66
2022-10-02T15:47:05.871Z,20.64
2022-10-02T15:48:46.911Z,20.57
2022-10-02T15:50:39.331Z,20.53
2022-10-02T15:52:13.491Z,20.48
2022-10-02T15:53:45.037Z,20.42
2022-10-02T15:55:19.462Z,20.38
2022-10-02T15:57:07.528Z,20.31
2022-10-02T15:58:48.176Z,20.26
2022-10-02T16:00:22.714Z,20.22
2022-10-02T16:02:17.545Z,20.20
2022-10-02T16:04:00.208Z,20.07
2022-10-02T16:05:41.113Z,19.91
2022-10-02T16:07:16.883Z,19.79
2022-10-02T16:08:48.605Z,19.72
2022-10-02T16:10:32.536Z,19.67
2022-10-02T16:12:14.579Z,19.61
2022-10-02T16:13:52.070Z,19.57
2022-10-02T16:15:31.473Z,19.54
2022-10-02T16:17:07.869Z,19.49
2022-10-02T16:18:45.852Z,19.44
2022-10-02T16:20:17.419Z,19.39
2022-10-02T16:21:55.095Z,19.34
2022-10-02T16:23:29.900Z,19.31
2022-10-02T16:25:19.854Z,19.22
2022-10-02T16:27:11.541Z,19.12
2022-10-02T16:28:56.488Z,19.04
2022-10-02T16:30:28.084Z,18.96
2022-10-02T16:32:12.535Z,18.91
2022-10-02T16:34:03.053Z,18.83
2022-10-02T16:35:44.174Z,18.73
2022-10-02T16:37:15.851Z,18.61
2022-10-02T16:38:53.721Z,18.47
2022-10-02T16:40:43.764Z,18.35
2022-10-02T16:42:22.198Z,18.22
2022-10-02T16:44:12.753Z,18.11
2022-10-02T16:45:53.023Z,17.97
2022-10-02T16:47:38.407Z,17.85
2022-10-02T16:49:21.857Z,17.71
2022-10-02T16:51:09.571Z,17.56
2022-10-02T16:52:41.193Z,17.43
2022-10-02T16:54:17.281Z,17.35
2022-10-02T16:55:51.125Z,17.26
2022-10-02T16:57:50.240Z,17.17
2022-10-02T16:59:54.725Z,17.06
2022-10-02T17:01:28.268Z,16.99
2022-10-02T17:02:59.962Z,16.94
2022-10-02T17:04:42.964Z,16.89
2022-10-02T17:06:41.096Z,16.86
2022-10-02T17:08:15.574Z,16.88
2022-10-02T17:10:18.099Z,16.88
2022-10-02T17:11:59.784Z,16.90
2022-10-02T17:13:51.202Z,16.86
2022-10-02T17:15:25.674Z,16.79
2022-10-02T17:17:02.048Z,16.72
2022-10-02T17:18:46.884Z,16.65
2022-10-02T17:20:30.712Z,16.56
2022-10-02T17:22:04.990Z,16.47
2022-10-02T17:23:46.118Z,16.41
2022-10-02T17:25:17.739Z,16.30
2022-10-02T17:27:13.216Z,16.25
2022-10-02T17:28:57.530Z,16.20
2022-10-02T17:30:30.439Z,16.12
2022-10-02T17:32:02.694Z,16.07
2022-10-02T17:33:45.638Z,16.08
2022-10-02T17:35:18.263Z,16.09
2022-10-02T17:37:12.591Z,16.11
2022-10-02T17:38:56.204Z,16.14
2022-10-02T17:40:29.138Z,16.10
2022-10-02T17:42:06.484Z,16.04
2022-10-02T17:43:52.976Z,15.96
2022-10-02T17:45:31.670Z,15.90
2022-10-02T17:47:03.443Z,15.82
2022-10-02T17:48:53.739Z,15.83
2022-10-02T17:50:30.106Z,15.82
2022-10-02T17:52:31.712Z,15.75
2022-10-02T17:54:25.852Z,15.68
2022-10-02T17:56:22.472Z,15.65
2022-10-02T17:58:16.970Z,15.62
2022-10-02T17:59:51.625Z,15.59
2022-10-02T18:01:27.068Z,15.60
2022-10-02T18:03:05.223Z,15.61
2022-10-02T18:04:40.200Z,15.57
2022-10-02T18:06:28.802Z,15.54
2022-10-02T18:08:00.332Z,15.56
2022-10-02T18:09:57.306Z,15.56
2022-10-02T18:11:41.820Z,15.51
2022-10-02T18:13:36.068Z,15.49
2022-10-02T18:15:27.692Z,15.48
2022-10-02T18:17:17.908Z,15.46
2022-10-02T18:19:22.171Z,15.45
2022-10-02T18:21:02.144Z,15.42
2022-10-02T18:22:44.699Z,15.42
2022-10-02T18:24:37.513Z,15.39
2022-10-02T18:26:19.060Z,15.36
2022-10-02T18:27:56.143Z,15.33
2022-10-02T18:29:30.651Z,15.32
2022-10-02T18:31:08.898Z,15.25
2022-10-02T18:32:40.537Z,15.20
2022-10-02T18:34:31.849Z,15.19
2022-10-02T18:36:21.929Z,15.19
2022-10-02T18:37:57.762Z,15.21
2022-10-02T18:39:45.090Z,15.24
2022-10-02T18:41:36.511Z,15.25
2022-10-02T18:43:27.409Z,15.29
2022-10-02T18:45:11.831Z,15.31
2022-10-02T18:46:53.043Z,15.29
2022-10-02T18:48:43.656Z,15.25
2022-10-02T18:50:39.913Z,15.17
2022-10-02T18:52:15.230Z,15.09
2022-10-02T18:54:02.416Z,15.00
2022-10-02T18:55:49.086Z,14.94
2022-10-02T18:57:39.031Z,14.89
2022-10-02T18:59:13.650Z,14.85
2022-10-02T19:00:48.277Z,14.87
2022-10-02T19:02:35.588Z,14.86
2022-10-02T19:04:16.513Z,14.85
2022-10-02T19:05:56.805Z,14.87
2022-10-02T19:07:30.058Z,14.90
2022-10-02T19:09:11.152Z,14.90
2022-10-02T19:10:51.203Z,14.93
2022-10-02T19:12:28.117Z,14.96
2022-10-02T19:14:03.579Z,15.00
2022-10-02T19:15:37.952Z,15.02
2022-10-02T19:17:13.258Z,15.01
2022-10-02T19:18:45.023Z,15.04
2022-10-02T19:20:36.290Z,15.07
2022-10-02T19:22:22.297Z,15.10
2022-10-02T19:24:04.934Z,15.14
2022-10-02T19:25:38.316Z,15.17
2022-10-02T19:27:16.235Z,15.22
2022-10-02T19:28:49.343Z,15.27
2022-10-02T19:30:23.576Z,15.31
2022-10-02T19:31:56.292Z,15.35
2022-10-02T19:33:53.913Z,15.39
2022-10-02T19:35:28.825Z,15.45
2022-10-02T19:37:02.302Z,15.49
2022-10-02T19:38:37.649Z,15.51
2022-10-02T19:40:35.351Z,15.50
2022-10-02T19:42:10.380Z,15.49
2022-10-02T19:43:46.870Z,15.48
2022-10-02T19:45:29.064Z,15.45
2022-10-02T19:47:04.184Z,15.43
2022-10-02T19:48:38.689Z,15.35
2022-10-02T19:50:20.379Z,15.29
2022-10-02T19:51:53.250Z,15.30
2022-10-02T19:53:26.163Z,15.31
2022-10-02T19:54:57.712Z,15.29
2022-10-02T19:56:32.334Z,15.25
2022-10-02T19:58:11.114Z,15.23
2022-10-02T19:59:44.159Z,15.18
2022-10-02T20:01:22.091Z,15.10
2022-10-02T20:02:54.756Z,15.14
2022-10-02T20:04:29.633Z,15.16
2022-10-02T20:06:03.289Z,15.19
2022-10-02T20:07:37.477Z,15.20
2022-10-02T20:09:13.730Z,15.18
2022-10-02T20:11:08.757Z,15.18
2022-10-02T20:12:41.908Z,15.19
2022-10-02T20:14:15.045Z,15.20
2022-10-02T20:16:11.642Z,15.21
2022-10-02T20:17:43.499Z,15.18
2022-10-02T20:19:35.634Z,15.12
2022-10-02T20:21:09.399Z,15.06
2022-10-02T20:23:02.858Z,15.05
2022-10-02T20:24:44.487Z,14.98
2022-10-02T20:26:16.245Z,14.98
2022-10-02T20:27:52.304Z,14.94
2022-10-02T20:29:26.648Z,14.89
2022-10-02T20:31:05.142Z,14.85
2022-10-02T20:32:47.749Z,14.86
2022-10-02T20:34:19.365Z,14.86
2022-10-02T20:36:01.818Z,14.84
2022-10-02T20:37:35.153Z,14.78
2022-10-02T20:39:12.239Z,14.78
2022-10-02T20:40:45.365Z,14.74
2022-10-02T20:42:30.348Z,14.73
2022-10-02T20:44:04.981Z,14.75
2022-10-02T20:45:46.173Z,14.72
2022-10-02T20:47:31.455Z,14.67
2022-10-02T20:49:09.574Z,14.65
2022-10-02T20:50:49.755Z,14.61
2022-10-02T20:52:30.370Z,14.55
2022-10-02T20:54:20.122Z,14.52
2022-10-02T20:55:53.567Z,14.44
2022-10-02T20:58:00.185Z,14.37
2022-10-02T20:59:45.478Z,14.29
2022-10-02T21:01:18.706Z,14.30
2022-10-02T21:03:05.940Z,14.28
2022-10-02T21:04:55.525Z,14.31
2022-10-02T21:06:38.128Z,14.32
2022-10-02T21:08:09.960Z,14.33
2022-10-02T21:10:17.298Z,14.32
2022-10-02T21:11:56.735Z,14.30
2022-10-02T21:13:47.079Z,14.26
2022-10-02T21:15:21.644Z,14.24
2022-10-02T21:17:09.459Z,14.21
2022-10-02T21:18:53.464Z,14.21
2022-10-02T21:20:49.833Z,14.23
2022-10-02T21:22:26.199Z,14.19
2022-10-02T21:24:06.883Z,14.14
2022-10-02T21:26:03.136Z,14.13
2022-10-02T21:27:53.335Z,14.08
2022-10-02T21:29:31.104Z,14.04
2022-10-02T21:31:10.306Z,14.01
2022-10-02T21:32:51.963Z,13.95
2022-10-02T21:34:31.162Z,13.92
2022-10-02T21:36:13.507Z,13.89
2022-10-02T21:38:09.506Z,13.87
2022-10-02T21:40:01.820Z,13.84
2022-10-02T21:41:52.210Z,13.81